sensor_id;sensor_type;location;lat;lon;timestamp;P1;durP1;ratioP1;P2;durP2;ratioP2
870;SDS011;422;51.280;7.236;2023-02-01T00:01:36;24.80;;;14.10;;
870;SDS011;422;51.280;7.236;2023-02-01T00:04:04;25.30;;;13.23;;
870;SDS011;422;51.280;7.236;2023-02-01T00:06:31;20.20;;;12.77;;
870;SDS011;422;51.280;7.236;2023-02-01T00:08:58;20.97;;;11.13;;
870;SDS011;422;51.280;7.236;2023-02-01T00:11:27;20.27;;;10.90;;
870;SDS011;422;51.280;7.236;2023-02-01T00:13:54;21.13;;;10.70;;
870;SDS011;422;51.280;7.236;2023-02-01T00:16:22;24.40;;;11.10;;
870;SDS011;422;51.280;7.236;2023-02-01T00:18:51;19.83;;;9.50;;
870;SDS011;422;51.280;7.236;2023-02-01T00:21:22;18.77;;;10.23;;
870;SDS011;422;51.280;7.236;2023-02-01T00:23:49;23.40;;;9.50;;
870;SDS011;422;51.280;7.236;2023-02-01T00:26:17;18.37;;;9.03;;
870;SDS011;422;51.280;7.236;2023-02-01T00:28:47;12.60;;;8.73;;
870;SDS011;422;51.280;7.236;2023-02-01T00:31:14;13.63;;;7.97;;
870;SDS011;422;51.280;7.236;2023-02-01T00:33:41;12.73;;;7.60;;
870;SDS011;422;51.280;7.236;2023-02-01T00:36:09;16.60;;;7.90;;
870;SDS011;422;51.280;7.236;2023-02-01T00:38:37;16.30;;;8.57;;
870;SDS011;422;51.280;7.236;2023-02-01T00:41:06;18.53;;;8.17;;
870;SDS011;422;51.280;7.236;2023-02-01T00:43:35;15.17;;;8.50;;
870;SDS011;422;51.280;7.236;2023-02-01T00:46:04;13.37;;;8.00;;
870;SDS011;422;51.280;7.236;2023-02-01T00:48:31;19.17;;;7.37;;
870;SDS011;422;51.280;7.236;2023-02-01T00:50:59;21.20;;;8.40;;
870;SDS011;422;51.280;7.236;2023-02-01T00:53:26;15.70;;;8.53;;
870;SDS011;422;51.280;7.236;2023-02-01T00:55:54;21.07;;;8.30;;
870;SDS011;422;51.280;7.236;2023-02-01T00:58:21;25.50;;;9.20;;
870;SDS011;422;51.280;7.236;2023-02-01T01:00:49;15.57;;;8.50;;
870;SDS011;422;51.280;7.236;2023-02-01T01:03:17;23.40;;;12.37;;
870;SDS011;422;51.280;7.236;2023-02-01T01:05:45;17.30;;;10.40;;
870;SDS011;422;51.280;7.236;2023-02-01T01:08:12;22.87;;;11.10;;
870;SDS011;422;51.280;7.236;2023-02-01T01:10:39;20.67;;;11.70;;
870;SDS011;422;51.280;7.236;2023-02-01T01:13:07;20.67;;;12.30;;
870;SDS011;422;51.280;7.236;2023-02-01T01:15:35;20.90;;;11.20;;
870;SDS011;422;51.280;7.236;2023-02-01T01:18:03;30.57;;;13.40;;
870;SDS011;422;51.280;7.236;2023-02-01T01:20:33;19.83;;;11.70;;
870;SDS011;422;51.280;7.236;2023-02-01T01:23:01;25.03;;;13.40;;
870;SDS011;422;51.280;7.236;2023-02-01T01:25:29;22.07;;;13.60;;
870;SDS011;422;51.280;7.236;2023-02-01T01:27:56;28.00;;;14.33;;
870;SDS011;422;51.280;7.236;2023-02-01T01:30:23;24.30;;;15.63;;
870;SDS011;422;51.280;7.236;2023-02-01T01:32:51;26.87;;;16.03;;
870;SDS011;422;51.280;7.236;2023-02-01T01:35:18;23.40;;;15.10;;
870;SDS011;422;51.280;7.236;2023-02-01T01:37:47;26.67;;;12.17;;
870;SDS011;422;51.280;7.236;2023-02-01T01:40:14;23.63;;;13.83;;
870;SDS011;422;51.280;7.236;2023-02-01T01:42:42;27.13;;;14.13;;
870;SDS011;422;51.280;7.236;2023-02-01T01:45:18;25.90;;;13.73;;
870;SDS011;422;51.280;7.236;2023-02-01T01:47:48;20.00;;;13.57;;
870;SDS011;422;51.280;7.236;2023-02-01T01:50:20;23.77;;;12.20;;
870;SDS011;422;51.280;7.236;2023-02-01T01:52:51;24.20;;;13.27;;
870;SDS011;422;51.280;7.236;2023-02-01T01:55:20;21.77;;;11.63;;
870;SDS011;422;51.280;7.236;2023-02-01T01:57:51;20.17;;;11.77;;
870;SDS011;422;51.280;7.236;2023-02-01T02:00:23;29.57;;;12.00;;
870;SDS011;422;51.280;7.236;2023-02-01T02:02:52;15.07;;;9.67;;
870;SDS011;422;51.280;7.236;2023-02-01T02:05:22;21.00;;;10.40;;
870;SDS011;422;51.280;7.236;2023-02-01T02:07:52;18.10;;;9.30;;
870;SDS011;422;51.280;7.236;2023-02-01T02:10:23;24.33;;;9.17;;
870;SDS011;422;51.280;7.236;2023-02-01T02:13:10;14.10;;;9.00;;
870;SDS011;422;51.280;7.236;2023-02-01T02:15:41;19.17;;;10.40;;
870;SDS011;422;51.280;7.236;2023-02-01T02:18:12;21.73;;;8.03;;
870;SDS011;422;51.280;7.236;2023-02-01T02:20:51;21.80;;;8.70;;
870;SDS011;422;51.280;7.236;2023-02-01T02:26:36;14.40;;;6.47;;
870;SDS011;422;51.280;7.236;2023-02-01T02:36:01;28.67;;;5.90;;
870;SDS011;422;51.280;7.236;2023-02-01T02:38:35;12.80;;;5.90;;
870;SDS011;422;51.280;7.236;2023-02-01T02:41:13;12.27;;;5.67;;
870;SDS011;422;51.280;7.236;2023-02-01T02:43:58;15.93;;;5.17;;
870;SDS011;422;51.280;7.236;2023-02-01T02:46:46;15.97;;;4.70;;
870;SDS011;422;51.280;7.236;2023-02-01T02:49:34;23.13;;;6.37;;
870;SDS011;422;51.280;7.236;2023-02-01T02:52:08;12.27;;;5.03;;
870;SDS011;422;51.280;7.236;2023-02-01T02:54:55;14.77;;;5.80;;
870;SDS011;422;51.280;7.236;2023-02-01T02:57:24;11.70;;;4.70;;
870;SDS011;422;51.280;7.236;2023-02-01T03:00:14;20.23;;;5.57;;
870;SDS011;422;51.280;7.236;2023-02-01T03:03:02;11.13;;;5.07;;
870;SDS011;422;51.280;7.236;2023-02-01T03:05:47;15.63;;;4.30;;
870;SDS011;422;51.280;7.236;2023-02-01T03:08:17;14.90;;;5.40;;
870;SDS011;422;51.280;7.236;2023-02-01T03:10:50;13.17;;;4.50;;
870;SDS011;422;51.280;7.236;2023-02-01T03:13:28;15.60;;;5.60;;
870;SDS011;422;51.280;7.236;2023-02-01T03:16:03;19.40;;;5.13;;
870;SDS011;422;51.280;7.236;2023-02-01T03:18:39;17.73;;;4.63;;
870;SDS011;422;51.280;7.236;2023-02-01T03:21:13;9.47;;;4.87;;
870;SDS011;422;51.280;7.236;2023-02-01T03:23:45;13.33;;;4.60;;
870;SDS011;422;51.280;7.236;2023-02-01T03:26:16;20.03;;;4.93;;
870;SDS011;422;51.280;7.236;2023-02-01T03:28:45;17.80;;;4.90;;
870;SDS011;422;51.280;7.236;2023-02-01T03:31:16;11.03;;;4.70;;
870;SDS011;422;51.280;7.236;2023-02-01T03:33:43;17.57;;;4.70;;
870;SDS011;422;51.280;7.236;2023-02-01T03:36:15;16.47;;;5.40;;
870;SDS011;422;51.280;7.236;2023-02-01T03:38:50;19.20;;;4.70;;
870;SDS011;422;51.280;7.236;2023-02-01T03:41:23;18.37;;;5.33;;
870;SDS011;422;51.280;7.236;2023-02-01T03:43:55;18.00;;;6.23;;
870;SDS011;422;51.280;7.236;2023-02-01T03:46:29;14.90;;;5.33;;
870;SDS011;422;51.280;7.236;2023-02-01T03:49:00;13.20;;;4.00;;
870;SDS011;422;51.280;7.236;2023-02-01T03:51:31;12.53;;;4.73;;
870;SDS011;422;51.280;7.236;2023-02-01T03:54:01;15.03;;;6.10;;
870;SDS011;422;51.280;7.236;2023-02-01T03:56:31;17.63;;;5.30;;
870;SDS011;422;51.280;7.236;2023-02-01T03:59:01;16.77;;;5.40;;
870;SDS011;422;51.280;7.236;2023-02-01T04:01:29;23.03;;;5.20;;
870;SDS011;422;51.280;7.236;2023-02-01T04:03:57;14.80;;;5.50;;
870;SDS011;422;51.280;7.236;2023-02-01T04:06:24;20.60;;;5.60;;
870;SDS011;422;51.280;7.236;2023-02-01T04:08:52;10.70;;;4.50;;
870;SDS011;422;51.280;7.236;2023-02-01T04:11:20;16.33;;;5.10;;
870;SDS011;422;51.280;7.236;2023-02-01T04:13:47;17.90;;;5.10;;
870;SDS011;422;51.280;7.236;2023-02-01T04:16:14;15.43;;;6.27;;
870;SDS011;422;51.280;7.236;2023-02-01T04:18:41;15.70;;;4.70;;
870;SDS011;422;51.280;7.236;2023-02-01T04:21:09;22.87;;;5.20;;
870;SDS011;422;51.280;7.236;2023-02-01T04:23:36;14.40;;;5.20;;
870;SDS011;422;51.280;7.236;2023-02-01T04:26:04;15.90;;;5.43;;
870;SDS011;422;51.280;7.236;2023-02-01T04:28:33;14.67;;;5.27;;
870;SDS011;422;51.280;7.236;2023-02-01T04:31:00;13.43;;;5.17;;
870;SDS011;422;51.280;7.236;2023-02-01T04:33:27;17.70;;;4.97;;
870;SDS011;422;51.280;7.236;2023-02-01T04:35:55;14.50;;;5.37;;
870;SDS011;422;51.280;7.236;2023-02-01T04:38:22;11.67;;;4.47;;
870;SDS011;422;51.280;7.236;2023-02-01T04:40:49;14.20;;;5.50;;
870;SDS011;422;51.280;7.236;2023-02-01T04:43:16;21.60;;;5.80;;
870;SDS011;422;51.280;7.236;2023-02-01T04:45:47;11.10;;;4.80;;
870;SDS011;422;51.280;7.236;2023-02-01T04:48:15;18.53;;;7.10;;
870;SDS011;422;51.280;7.236;2023-02-01T04:50:43;13.77;;;5.30;;
870;SDS011;422;51.280;7.236;2023-02-01T04:53:12;17.23;;;5.43;;
870;SDS011;422;51.280;7.236;2023-02-01T04:55:40;15.50;;;4.73;;
870;SDS011;422;51.280;7.236;2023-02-01T04:58:07;14.63;;;5.43;;
870;SDS011;422;51.280;7.236;2023-02-01T05:00:35;12.67;;;5.00;;
870;SDS011;422;51.280;7.236;2023-02-01T05:03:04;15.47;;;5.23;;
870;SDS011;422;51.280;7.236;2023-02-01T05:05:31;19.80;;;5.50;;
870;SDS011;422;51.280;7.236;2023-02-01T05:07:59;15.47;;;4.23;;
870;SDS011;422;51.280;7.236;2023-02-01T05:10:26;15.00;;;5.00;;
870;SDS011;422;51.280;7.236;2023-02-01T05:12:53;12.07;;;5.50;;
870;SDS011;422;51.280;7.236;2023-02-01T05:15:38;9.17;;;3.73;;
870;SDS011;422;51.280;7.236;2023-02-01T05:18:07;15.53;;;5.10;;
870;SDS011;422;51.280;7.236;2023-02-01T05:20:34;14.17;;;5.67;;
870;SDS011;422;51.280;7.236;2023-02-01T05:23:01;20.17;;;5.37;;
870;SDS011;422;51.280;7.236;2023-02-01T05:25:28;13.87;;;4.90;;
870;SDS011;422;51.280;7.236;2023-02-01T05:27:55;15.83;;;5.53;;
870;SDS011;422;51.280;7.236;2023-02-01T05:30:22;16.53;;;4.87;;
870;SDS011;422;51.280;7.236;2023-02-01T05:32:50;13.37;;;4.30;;
870;SDS011;422;51.280;7.236;2023-02-01T05:35:18;21.70;;;5.57;;
870;SDS011;422;51.280;7.236;2023-02-01T05:37:46;17.90;;;5.70;;
870;SDS011;422;51.280;7.236;2023-02-01T05:40:13;16.20;;;5.10;;
870;SDS011;422;51.280;7.236;2023-02-01T05:42:40;22.10;;;7.00;;
870;SDS011;422;51.280;7.236;2023-02-01T05:45:08;13.10;;;4.73;;
870;SDS011;422;51.280;7.236;2023-02-01T05:47:35;11.40;;;5.27;;
870;SDS011;422;51.280;7.236;2023-02-01T05:50:03;16.90;;;5.40;;
870;SDS011;422;51.280;7.236;2023-02-01T05:52:33;16.50;;;6.20;;
870;SDS011;422;51.280;7.236;2023-02-01T05:55:00;16.67;;;5.03;;
870;SDS011;422;51.280;7.236;2023-02-01T05:57:27;16.70;;;6.03;;
870;SDS011;422;51.280;7.236;2023-02-01T05:59:55;17.90;;;5.13;;
870;SDS011;422;51.280;7.236;2023-02-01T06:02:22;22.27;;;5.33;;
870;SDS011;422;51.280;7.236;2023-02-01T06:04:49;20.10;;;7.00;;
870;SDS011;422;51.280;7.236;2023-02-01T06:07:16;12.13;;;4.50;;
870;SDS011;422;51.280;7.236;2023-02-01T06:09:45;15.53;;;5.20;;
870;SDS011;422;51.280;7.236;2023-02-01T06:12:12;17.17;;;5.47;;
870;SDS011;422;51.280;7.236;2023-02-01T06:14:39;16.97;;;5.30;;
870;SDS011;422;51.280;7.236;2023-02-01T06:17:08;16.50;;;5.27;;
870;SDS011;422;51.280;7.236;2023-02-01T06:19:35;16.67;;;5.70;;
870;SDS011;422;51.280;7.236;2023-02-01T06:22:02;22.27;;;7.27;;
870;SDS011;422;51.280;7.236;2023-02-01T06:24:31;22.13;;;5.83;;
870;SDS011;422;51.280;7.236;2023-02-01T06:26:59;27.07;;;6.03;;
870;SDS011;422;51.280;7.236;2023-02-01T06:29:27;22.50;;;6.63;;
870;SDS011;422;51.280;7.236;2023-02-01T06:31:54;15.83;;;6.10;;
870;SDS011;422;51.280;7.236;2023-02-01T06:34:21;12.00;;;4.40;;
870;SDS011;422;51.280;7.236;2023-02-01T06:36:49;20.30;;;4.73;;
870;SDS011;422;51.280;7.236;2023-02-01T06:39:16;19.20;;;6.37;;
870;SDS011;422;51.280;7.236;2023-02-01T06:41:45;18.63;;;4.97;;
870;SDS011;422;51.280;7.236;2023-02-01T06:44:14;19.23;;;6.40;;
870;SDS011;422;51.280;7.236;2023-02-01T06:46:41;15.20;;;5.60;;
870;SDS011;422;51.280;7.236;2023-02-01T06:49:08;19.13;;;5.40;;
870;SDS011;422;51.280;7.236;2023-02-01T06:51:36;15.57;;;6.03;;
870;SDS011;422;51.280;7.236;2023-02-01T06:54:03;15.83;;;6.73;;
870;SDS011;422;51.280;7.236;2023-02-01T06:56:30;18.47;;;4.80;;
870;SDS011;422;51.280;7.236;2023-02-01T06:58:57;26.50;;;5.43;;
870;SDS011;422;51.280;7.236;2023-02-01T07:01:27;16.17;;;5.37;;
870;SDS011;422;51.280;7.236;2023-02-01T07:03:54;24.33;;;5.50;;
870;SDS011;422;51.280;7.236;2023-02-01T07:06:21;21.97;;;5.50;;
870;SDS011;422;51.280;7.236;2023-02-01T07:08:48;24.00;;;5.33;;
870;SDS011;422;51.280;7.236;2023-02-01T07:11:16;14.77;;;4.73;;
870;SDS011;422;51.280;7.236;2023-02-01T07:13:44;17.77;;;5.67;;
870;SDS011;422;51.280;7.236;2023-02-01T07:16:13;14.47;;;5.00;;
870;SDS011;422;51.280;7.236;2023-02-01T07:18:43;18.47;;;4.93;;
870;SDS011;422;51.280;7.236;2023-02-01T07:21:11;9.43;;;4.67;;
870;SDS011;422;51.280;7.236;2023-02-01T07:23:38;22.30;;;6.53;;
870;SDS011;422;51.280;7.236;2023-02-01T07:26:06;24.20;;;5.90;;
870;SDS011;422;51.280;7.236;2023-02-01T07:28:34;19.20;;;6.00;;
870;SDS011;422;51.280;7.236;2023-02-01T07:31:02;26.43;;;6.70;;
870;SDS011;422;51.280;7.236;2023-02-01T07:33:30;18.23;;;6.60;;
870;SDS011;422;51.280;7.236;2023-02-01T07:35:59;15.77;;;5.47;;
870;SDS011;422;51.280;7.236;2023-02-01T07:38:27;17.50;;;4.80;;
870;SDS011;422;51.280;7.236;2023-02-01T07:40:56;13.90;;;4.90;;
870;SDS011;422;51.280;7.236;2023-02-01T07:43:24;18.87;;;5.50;;
870;SDS011;422;51.280;7.236;2023-02-01T07:45:52;18.17;;;5.30;;
870;SDS011;422;51.280;7.236;2023-02-01T07:48:20;20.47;;;6.17;;
870;SDS011;422;51.280;7.236;2023-02-01T07:50:48;15.13;;;5.27;;
870;SDS011;422;51.280;7.236;2023-02-01T07:53:24;15.30;;;6.00;;
870;SDS011;422;51.280;7.236;2023-02-01T07:55:51;19.03;;;5.77;;
870;SDS011;422;51.280;7.236;2023-02-01T07:58:18;17.97;;;5.30;;
870;SDS011;422;51.280;7.236;2023-02-01T08:00:45;29.40;;;6.87;;
870;SDS011;422;51.280;7.236;2023-02-01T08:03:30;22.10;;;6.10;;
870;SDS011;422;51.280;7.236;2023-02-01T08:05:57;16.40;;;5.80;;
870;SDS011;422;51.280;7.236;2023-02-01T08:08:25;11.90;;;5.87;;
870;SDS011;422;51.280;7.236;2023-02-01T08:10:56;15.93;;;5.63;;
870;SDS011;422;51.280;7.236;2023-02-01T08:13:23;14.43;;;6.30;;
870;SDS011;422;51.280;7.236;2023-02-01T08:15:51;18.90;;;6.10;;
870;SDS011;422;51.280;7.236;2023-02-01T08:18:18;15.97;;;4.90;;
870;SDS011;422;51.280;7.236;2023-02-01T08:20:48;17.60;;;5.90;;
870;SDS011;422;51.280;7.236;2023-02-01T08:23:16;15.33;;;6.47;;
870;SDS011;422;51.280;7.236;2023-02-01T08:25:45;17.20;;;5.37;;
870;SDS011;422;51.280;7.236;2023-02-01T08:28:12;24.80;;;5.67;;
870;SDS011;422;51.280;7.236;2023-02-01T08:30:40;14.97;;;5.97;;
870;SDS011;422;51.280;7.236;2023-02-01T08:33:08;24.57;;;5.97;;
870;SDS011;422;51.280;7.236;2023-02-01T08:35:37;16.97;;;5.93;;
870;SDS011;422;51.280;7.236;2023-02-01T08:38:04;17.47;;;6.43;;
870;SDS011;422;51.280;7.236;2023-02-01T08:40:32;22.03;;;5.40;;
870;SDS011;422;51.280;7.236;2023-02-01T08:43:00;17.37;;;6.57;;
870;SDS011;422;51.280;7.236;2023-02-01T08:45:28;13.40;;;5.27;;
870;SDS011;422;51.280;7.236;2023-02-01T08:47:56;13.80;;;5.87;;
870;SDS011;422;51.280;7.236;2023-02-01T08:50:23;22.07;;;6.87;;
870;SDS011;422;51.280;7.236;2023-02-01T08:52:52;25.23;;;6.83;;
870;SDS011;422;51.280;7.236;2023-02-01T08:55:20;18.70;;;6.90;;
870;SDS011;422;51.280;7.236;2023-02-01T08:57:47;13.80;;;6.47;;
870;SDS011;422;51.280;7.236;2023-02-01T09:02:44;15.90;;;6.37;;
870;SDS011;422;51.280;7.236;2023-02-01T09:05:12;27.93;;;7.20;;
870;SDS011;422;51.280;7.236;2023-02-01T09:07:41;25.90;;;7.80;;
870;SDS011;422;51.280;7.236;2023-02-01T09:10:09;23.93;;;7.13;;
870;SDS011;422;51.280;7.236;2023-02-01T09:12:37;16.03;;;6.20;;
870;SDS011;422;51.280;7.236;2023-02-01T09:15:04;19.13;;;6.43;;
870;SDS011;422;51.280;7.236;2023-02-01T09:17:34;19.43;;;6.53;;
870;SDS011;422;51.280;7.236;2023-02-01T09:20:03;24.23;;;8.00;;
870;SDS011;422;51.280;7.236;2023-02-01T09:22:30;15.30;;;6.97;;
870;SDS011;422;51.280;7.236;2023-02-01T09:24:57;20.17;;;6.77;;
870;SDS011;422;51.280;7.236;2023-02-01T09:27:24;20.33;;;6.43;;
870;SDS011;422;51.280;7.236;2023-02-01T09:29:52;29.43;;;8.07;;
870;SDS011;422;51.280;7.236;2023-02-01T09:32:19;23.57;;;6.77;;
870;SDS011;422;51.280;7.236;2023-02-01T09:34:48;23.60;;;6.30;;
870;SDS011;422;51.280;7.236;2023-02-01T09:37:16;20.63;;;7.00;;
870;SDS011;422;51.280;7.236;2023-02-01T09:39:44;22.60;;;6.87;;
870;SDS011;422;51.280;7.236;2023-02-01T09:42:16;32.03;;;6.20;;
870;SDS011;422;51.280;7.236;2023-02-01T09:47:38;22.87;;;5.97;;
870;SDS011;422;51.280;7.236;2023-02-01T09:50:14;21.90;;;6.27;;
870;SDS011;422;51.280;7.236;2023-02-01T09:52:48;21.50;;;7.03;;
870;SDS011;422;51.280;7.236;2023-02-01T09:55:23;17.70;;;9.27;;
870;SDS011;422;51.280;7.236;2023-02-01T09:58:02;17.23;;;7.27;;
870;SDS011;422;51.280;7.236;2023-02-01T10:00:34;20.00;;;9.80;;
870;SDS011;422;51.280;7.236;2023-02-01T10:03:03;17.53;;;7.87;;
870;SDS011;422;51.280;7.236;2023-02-01T10:05:54;17.70;;;7.53;;
870;SDS011;422;51.280;7.236;2023-02-01T10:08:33;19.87;;;6.77;;
870;SDS011;422;51.280;7.236;2023-02-01T10:11:19;16.57;;;8.10;;
870;SDS011;422;51.280;7.236;2023-02-01T10:13:54;18.33;;;6.60;;
870;SDS011;422;51.280;7.236;2023-02-01T10:16:33;18.00;;;7.67;;
870;SDS011;422;51.280;7.236;2023-02-01T10:19:21;20.37;;;6.07;;
870;SDS011;422;51.280;7.236;2023-02-01T10:21:57;18.90;;;7.43;;
870;SDS011;422;51.280;7.236;2023-02-01T10:24:40;13.30;;;6.00;;
870;SDS011;422;51.280;7.236;2023-02-01T10:27:12;13.97;;;7.27;;
870;SDS011;422;51.280;7.236;2023-02-01T10:29:43;16.43;;;6.33;;
870;SDS011;422;51.280;7.236;2023-02-01T10:32:14;15.83;;;5.97;;
870;SDS011;422;51.280;7.236;2023-02-01T10:34:44;12.53;;;6.27;;
870;SDS011;422;51.280;7.236;2023-02-01T10:37:20;16.67;;;8.10;;
870;SDS011;422;51.280;7.236;2023-02-01T10:39:52;10.33;;;5.90;;
870;SDS011;422;51.280;7.236;2023-02-01T10:42:23;16.73;;;6.33;;
870;SDS011;422;51.280;7.236;2023-02-01T10:44:52;21.53;;;8.57;;
870;SDS011;422;51.280;7.236;2023-02-01T10:47:22;14.90;;;5.70;;
870;SDS011;422;51.280;7.236;2023-02-01T10:49:50;19.07;;;7.20;;
870;SDS011;422;51.280;7.236;2023-02-01T10:52:28;16.20;;;7.40;;
870;SDS011;422;51.280;7.236;2023-02-01T10:57:57;16.57;;;8.10;;
870;SDS011;422;51.280;7.236;2023-02-01T11:00:26;19.30;;;6.63;;
870;SDS011;422;51.280;7.236;2023-02-01T11:02:54;16.80;;;7.10;;
870;SDS011;422;51.280;7.236;2023-02-01T11:05:21;17.43;;;7.20;;
870;SDS011;422;51.280;7.236;2023-02-01T11:07:51;18.93;;;7.43;;
870;SDS011;422;51.280;7.236;2023-02-01T11:10:36;19.87;;;8.93;;
870;SDS011;422;51.280;7.236;2023-02-01T11:13:07;23.87;;;9.00;;
870;SDS011;422;51.280;7.236;2023-02-01T11:15:42;20.53;;;7.60;;
870;SDS011;422;51.280;7.236;2023-02-01T11:18:14;14.63;;;8.43;;
870;SDS011;422;51.280;7.236;2023-02-01T11:20:43;21.17;;;7.40;;
870;SDS011;422;51.280;7.236;2023-02-01T11:23:16;18.97;;;8.10;;
870;SDS011;422;51.280;7.236;2023-02-01T11:25:49;21.67;;;10.10;;
870;SDS011;422;51.280;7.236;2023-02-01T11:28:18;17.17;;;10.13;;
870;SDS011;422;51.280;7.236;2023-02-01T11:30:49;16.70;;;7.47;;
870;SDS011;422;51.280;7.236;2023-02-01T11:33:20;18.10;;;7.13;;
870;SDS011;422;51.280;7.236;2023-02-01T11:35:54;15.00;;;5.60;;
870;SDS011;422;51.280;7.236;2023-02-01T11:38:27;19.10;;;5.80;;
870;SDS011;422;51.280;7.236;2023-02-01T11:41:10;14.50;;;6.33;;
870;SDS011;422;51.280;7.236;2023-02-01T11:43:50;23.37;;;11.60;;
870;SDS011;422;51.280;7.236;2023-02-01T11:46:19;21.40;;;11.10;;
870;SDS011;422;51.280;7.236;2023-02-01T11:48:50;15.30;;;7.40;;
870;SDS011;422;51.280;7.236;2023-02-01T11:51:21;11.00;;;5.73;;
870;SDS011;422;51.280;7.236;2023-02-01T11:54:05;17.83;;;7.90;;
870;SDS011;422;51.280;7.236;2023-02-01T11:56:47;16.60;;;5.20;;
870;SDS011;422;51.280;7.236;2023-02-01T11:59:29;15.53;;;5.20;;
870;SDS011;422;51.280;7.236;2023-02-01T12:02:32;9.67;;;6.90;;
870;SDS011;422;51.280;7.236;2023-02-01T12:05:14;16.30;;;6.90;;
870;SDS011;422;51.280;7.236;2023-02-01T12:07:58;14.47;;;6.10;;
870;SDS011;422;51.280;7.236;2023-02-01T12:10:38;17.37;;;5.70;;
870;SDS011;422;51.280;7.236;2023-02-01T12:13:18;12.53;;;6.93;;
870;SDS011;422;51.280;7.236;2023-02-01T12:15:56;18.60;;;6.27;;
870;SDS011;422;51.280;7.236;2023-02-01T12:21:42;10.53;;;5.60;;
870;SDS011;422;51.280;7.236;2023-02-01T12:24:25;14.83;;;6.30;;
870;SDS011;422;51.280;7.236;2023-02-01T12:27:24;14.00;;;6.30;;
870;SDS011;422;51.280;7.236;2023-02-01T12:33:09;25.13;;;6.60;;
870;SDS011;422;51.280;7.236;2023-02-01T12:35:44;22.43;;;6.80;;
870;SDS011;422;51.280;7.236;2023-02-01T12:38:35;10.90;;;5.40;;
870;SDS011;422;51.280;7.236;2023-02-01T12:44:27;18.37;;;7.57;;
870;SDS011;422;51.280;7.236;2023-02-01T12:47:00;18.83;;;7.43;;
870;SDS011;422;51.280;7.236;2023-02-01T12:49:34;16.57;;;7.10;;
870;SDS011;422;51.280;7.236;2023-02-01T12:52:10;12.30;;;5.83;;
870;SDS011;422;51.280;7.236;2023-02-01T12:54:44;14.40;;;5.50;;
870;SDS011;422;51.280;7.236;2023-02-01T12:57:15;10.47;;;5.47;;
870;SDS011;422;51.280;7.236;2023-02-01T12:59:49;15.70;;;6.23;;
870;SDS011;422;51.280;7.236;2023-02-01T13:02:25;13.60;;;6.30;;
870;SDS011;422;51.280;7.236;2023-02-01T13:04:59;17.40;;;6.30;;
870;SDS011;422;51.280;7.236;2023-02-01T13:07:31;20.03;;;7.00;;
870;SDS011;422;51.280;7.236;2023-02-01T13:10:05;17.10;;;6.97;;
870;SDS011;422;51.280;7.236;2023-02-01T13:12:42;13.33;;;5.90;;
870;SDS011;422;51.280;7.236;2023-02-01T13:15:16;14.73;;;5.50;;
870;SDS011;422;51.280;7.236;2023-02-01T13:17:49;10.10;;;6.00;;
870;SDS011;422;51.280;7.236;2023-02-01T13:20:21;13.50;;;7.13;;
870;SDS011;422;51.280;7.236;2023-02-01T13:22:53;11.53;;;5.40;;
870;SDS011;422;51.280;7.236;2023-02-01T13:25:27;19.17;;;7.43;;
870;SDS011;422;51.280;7.236;2023-02-01T13:28:00;17.30;;;7.80;;
870;SDS011;422;51.280;7.236;2023-02-01T13:30:37;14.63;;;6.57;;
870;SDS011;422;51.280;7.236;2023-02-01T13:33:18;17.13;;;8.03;;
870;SDS011;422;51.280;7.236;2023-02-01T13:42:14;12.30;;;6.43;;
870;SDS011;422;51.280;7.236;2023-02-01T13:44:45;12.00;;;5.37;;
870;SDS011;422;51.280;7.236;2023-02-01T13:47:22;20.60;;;6.30;;
870;SDS011;422;51.280;7.236;2023-02-01T13:49:53;17.40;;;5.90;;
870;SDS011;422;51.280;7.236;2023-02-01T13:52:27;16.93;;;6.10;;
870;SDS011;422;51.280;7.236;2023-02-01T13:55:14;15.63;;;5.87;;
870;SDS011;422;51.280;7.236;2023-02-01T13:57:51;17.90;;;6.23;;
870;SDS011;422;51.280;7.236;2023-02-01T14:00:27;20.37;;;6.77;;
870;SDS011;422;51.280;7.236;2023-02-01T14:06:32;15.23;;;5.47;;
870;SDS011;422;51.280;7.236;2023-02-01T14:12:38;15.60;;;5.53;;
870;SDS011;422;51.280;7.236;2023-02-01T14:17:52;15.00;;;5.40;;
870;SDS011;422;51.280;7.236;2023-02-01T14:23:24;12.03;;;4.80;;
870;SDS011;422;51.280;7.236;2023-02-01T14:26:12;14.93;;;5.50;;
870;SDS011;422;51.280;7.236;2023-02-01T14:28:46;14.77;;;5.20;;
870;SDS011;422;51.280;7.236;2023-02-01T14:34:14;14.53;;;5.80;;
870;SDS011;422;51.280;7.236;2023-02-01T14:36:50;11.50;;;4.07;;
870;SDS011;422;51.280;7.236;2023-02-01T14:39:26;10.90;;;4.93;;
870;SDS011;422;51.280;7.236;2023-02-01T14:41:57;18.20;;;5.03;;
870;SDS011;422;51.280;7.236;2023-02-01T14:44:28;7.33;;;3.70;;
870;SDS011;422;51.280;7.236;2023-02-01T14:49:59;15.00;;;4.67;;
870;SDS011;422;51.280;7.236;2023-02-01T14:52:46;9.70;;;5.00;;
870;SDS011;422;51.280;7.236;2023-02-01T14:55:17;11.90;;;3.97;;
870;SDS011;422;51.280;7.236;2023-02-01T14:57:48;9.40;;;3.93;;
870;SDS011;422;51.280;7.236;2023-02-01T15:00:20;15.40;;;5.87;;
870;SDS011;422;51.280;7.236;2023-02-01T15:02:52;10.20;;;3.10;;
870;SDS011;422;51.280;7.236;2023-02-01T15:05:30;13.13;;;5.53;;
870;SDS011;422;51.280;7.236;2023-02-01T15:08:04;11.40;;;3.83;;
870;SDS011;422;51.280;7.236;2023-02-01T15:10:40;19.63;;;4.30;;
870;SDS011;422;51.280;7.236;2023-02-01T15:13:17;14.13;;;4.53;;
870;SDS011;422;51.280;7.236;2023-02-01T15:16:00;16.07;;;5.37;;
870;SDS011;422;51.280;7.236;2023-02-01T15:18:29;16.77;;;4.27;;
870;SDS011;422;51.280;7.236;2023-02-01T15:20:58;15.03;;;3.83;;
870;SDS011;422;51.280;7.236;2023-02-01T15:23:27;13.33;;;4.93;;
870;SDS011;422;51.280;7.236;2023-02-01T15:25:54;14.50;;;4.63;;
870;SDS011;422;51.280;7.236;2023-02-01T15:28:21;15.07;;;3.83;;
870;SDS011;422;51.280;7.236;2023-02-01T15:30:53;12.03;;;4.63;;
870;SDS011;422;51.280;7.236;2023-02-01T15:33:23;16.60;;;4.90;;
870;SDS011;422;51.280;7.236;2023-02-01T15:35:53;18.27;;;4.60;;
870;SDS011;422;51.280;7.236;2023-02-01T15:41:13;9.57;;;4.43;;
870;SDS011;422;51.280;7.236;2023-02-01T15:43:42;10.07;;;4.40;;
870;SDS011;422;51.280;7.236;2023-02-01T15:46:12;9.80;;;4.23;;
870;SDS011;422;51.280;7.236;2023-02-01T15:48:45;12.27;;;4.50;;
870;SDS011;422;51.280;7.236;2023-02-01T15:51:16;18.30;;;4.47;;
870;SDS011;422;51.280;7.236;2023-02-01T15:53:49;10.23;;;3.90;;
870;SDS011;422;51.280;7.236;2023-02-01T15:56:23;11.70;;;3.93;;
870;SDS011;422;51.280;7.236;2023-02-01T15:58:52;16.17;;;5.17;;
870;SDS011;422;51.280;7.236;2023-02-01T16:01:22;13.90;;;4.93;;
870;SDS011;422;51.280;7.236;2023-02-01T16:03:49;9.80;;;4.57;;
870;SDS011;422;51.280;7.236;2023-02-01T16:06:31;19.27;;;5.80;;
870;SDS011;422;51.280;7.236;2023-02-01T16:09:05;18.30;;;5.93;;
870;SDS011;422;51.280;7.236;2023-02-01T16:11:41;11.53;;;3.90;;
870;SDS011;422;51.280;7.236;2023-02-01T16:14:14;16.50;;;4.37;;
870;SDS011;422;51.280;7.236;2023-02-01T16:16:41;16.40;;;4.47;;
870;SDS011;422;51.280;7.236;2023-02-01T16:19:08;13.90;;;4.30;;
870;SDS011;422;51.280;7.236;2023-02-01T16:21:37;16.07;;;4.73;;
870;SDS011;422;51.280;7.236;2023-02-01T16:24:04;17.07;;;5.20;;
870;SDS011;422;51.280;7.236;2023-02-01T16:26:32;14.90;;;5.07;;
870;SDS011;422;51.280;7.236;2023-02-01T16:29:00;12.47;;;4.73;;
870;SDS011;422;51.280;7.236;2023-02-01T16:31:31;18.10;;;4.77;;
870;SDS011;422;51.280;7.236;2023-02-01T16:34:00;16.50;;;5.87;;
870;SDS011;422;51.280;7.236;2023-02-01T16:36:28;16.27;;;4.83;;
870;SDS011;422;51.280;7.236;2023-02-01T16:38:56;17.77;;;5.23;;
870;SDS011;422;51.280;7.236;2023-02-01T16:41:24;19.40;;;6.33;;
870;SDS011;422;51.280;7.236;2023-02-01T16:43:54;14.80;;;5.77;;
870;SDS011;422;51.280;7.236;2023-02-01T16:46:23;14.40;;;4.93;;
870;SDS011;422;51.280;7.236;2023-02-01T16:48:51;19.43;;;4.50;;
870;SDS011;422;51.280;7.236;2023-02-01T16:51:21;19.50;;;5.60;;